DTTA/TUN METAR and TAF weather

Enter ICAO airport designator
Station Type Date Time Source
DTTA METAR 2019/04/19 22:30 UTC NOAA

DTTA 192230Z 13011KT 090V150 9999 FEW026 16/13 Q1021


Station Type Date Time Source
DTTA Decoded METAR 2019/04/19 22:30 UTC NOAA

Tunis-Carthage, Tunisia (DTTA) 36-50N 010-14E 4M
Apr 19, 2019 - 06:30 PM EDT / 2019.04.19 2230 UTC
Wind: from the SE (130 degrees) at 13 MPH (11 KT) (direction variable):0
Visibility: greater than 7 mile(s):0
Sky conditions: mostly clear
Temperature: 60 F (16 C)
Dew Point: 55 F (13 C)
Relative Humidity: 82%
Pressure (altimeter): 30.15 in. Hg (1021 hPa)
ob: DTTA 192230Z 13011KT 090V150 9999 FEW026 16/13 Q1021
cycle: 22

Station Type Date Time Source
DTTA TAF 2019/04/19 18:03 UTC NOAA

TAF DTTA 191700Z 1918/2018 12015G25KT 9999 FEW026
TEMPO 1918/1924 13025G30KT
BECMG 2005/2007 12019G35KT

Example: see airport list